createdAt,value
2019-03-24T00:00:59.210Z,9.83
2019-03-24T00:03:28.441Z,9.64
2019-03-24T00:05:57.333Z,9.57
2019-03-24T00:08:26.141Z,9.58
2019-03-24T00:10:55.252Z,9.62
2019-03-24T00:13:25.014Z,9.56
2019-03-24T00:15:54.145Z,9.46
2019-03-24T00:18:22.975Z,9.42
2019-03-24T00:20:52.060Z,9.42
2019-03-24T00:23:21.200Z,9.39
2019-03-24T00:25:50.016Z,9.36
2019-03-24T00:28:18.819Z,9.35
2019-03-24T00:30:47.907Z,9.29
2019-03-24T00:33:17.064Z,9.26
2019-03-24T00:35:45.864Z,9.22
2019-03-24T00:38:14.756Z,9.20
2019-03-24T00:40:43.534Z,9.20
2019-03-24T00:43:12.633Z,9.19
2019-03-24T00:45:42.856Z,9.06
2019-03-24T00:48:11.850Z,9.02
2019-03-24T00:50:41.046Z,9.03
2019-03-24T00:53:09.867Z,9.00
2019-03-24T00:55:38.687Z,8.99
2019-03-24T00:58:07.447Z,8.97
2019-03-24T01:00:44.356Z,9.04
2019-03-24T01:03:13.187Z,8.99
2019-03-24T01:05:42.012Z,9.03
2019-03-24T01:08:10.849Z,9.00
2019-03-24T01:10:39.645Z,8.88
2019-03-24T01:13:08.433Z,8.82
2019-03-24T01:15:47.279Z,8.81
2019-03-24T01:18:08.122Z,8.78
2019-03-24T01:20:37.345Z,8.76
2019-03-24T01:23:06.331Z,8.62
2019-03-24T01:25:35.258Z,8.64
2019-03-24T01:28:04.265Z,8.62
2019-03-24T01:30:33.315Z,8.64
2019-03-24T01:33:02.682Z,8.61
2019-03-24T01:35:31.540Z,8.54
2019-03-24T01:38:00.327Z,8.44
2019-03-24T01:40:29.148Z,8.45
2019-03-24T01:42:58.020Z,8.42
2019-03-24T01:45:26.998Z,8.46
2019-03-24T01:47:55.861Z,8.32
2019-03-24T01:50:24.754Z,8.45
2019-03-24T01:52:53.550Z,8.31
2019-03-24T01:55:22.692Z,8.23
2019-03-24T01:57:52.649Z,8.31
2019-03-24T02:00:21.474Z,8.16
2019-03-24T02:02:50.733Z,8.14
2019-03-24T02:05:19.600Z,8.10
2019-03-24T02:07:48.487Z,8.04
2019-03-24T02:10:17.451Z,8.09
2019-03-24T02:12:46.346Z,8.14
2019-03-24T02:15:15.134Z,8.14
2019-03-24T02:17:43.973Z,8.08
2019-03-24T02:20:14.709Z,8.09
2019-03-24T02:22:43.579Z,8.06
2019-03-24T02:25:12.699Z,8.01
2019-03-24T02:27:41.935Z,8.07
2019-03-24T02:30:12.895Z,7.93
2019-03-24T02:32:41.968Z,7.94
2019-03-24T02:35:11.706Z,7.85
2019-03-24T02:37:40.803Z,7.89
2019-03-24T02:40:19.935Z,7.87
2019-03-24T02:42:47.953Z,7.80
2019-03-24T02:45:17.158Z,7.73
2019-03-24T02:47:46.112Z,7.73
2019-03-24T02:50:15.319Z,7.81
2019-03-24T02:52:44.728Z,7.76
2019-03-24T02:55:13.605Z,7.72
2019-03-24T02:57:42.744Z,7.70
2019-03-24T03:00:12.109Z,7.65
2019-03-24T03:02:40.974Z,7.62
2019-03-24T03:05:10.720Z,7.64
2019-03-24T03:07:39.848Z,7.56
2019-03-24T03:10:09.166Z,7.49
2019-03-24T03:12:37.987Z,7.37
2019-03-24T03:15:07.712Z,7.29
2019-03-24T03:17:36.485Z,7.32
2019-03-24T03:20:06.217Z,7.46
2019-03-24T03:22:35.471Z,7.50
2019-03-24T03:25:05.109Z,7.40
2019-03-24T03:27:34.025Z,7.34
2019-03-24T03:30:03.119Z,7.25
2019-03-24T03:32:32.075Z,7.09
2019-03-24T03:35:01.049Z,7.00
2019-03-24T03:37:29.881Z,6.90
2019-03-24T03:39:58.780Z,6.81
2019-03-24T03:42:27.942Z,6.73
2019-03-24T03:44:56.905Z,6.65
2019-03-24T03:47:25.718Z,6.61
2019-03-24T03:49:54.890Z,6.66
2019-03-24T03:52:23.677Z,6.63
2019-03-24T03:54:52.458Z,6.77
2019-03-24T03:57:21.254Z,6.66
2019-03-24T03:59:50.180Z,6.59
2019-03-24T04:02:20.614Z,6.54
2019-03-24T04:04:49.629Z,6.71
2019-03-24T04:07:18.427Z,6.70
2019-03-24T04:09:47.302Z,6.71
2019-03-24T04:12:16.466Z,6.59
2019-03-24T04:14:45.302Z,6.49
2019-03-24T04:17:14.565Z,6.48
2019-03-24T04:19:43.770Z,6.53
2019-03-24T04:22:12.624Z,6.49
2019-03-24T04:24:41.410Z,6.50
2019-03-24T04:27:10.341Z,6.38
2019-03-24T04:29:39.497Z,6.32
2019-03-24T04:32:08.364Z,6.23
2019-03-24T04:34:37.500Z,6.30
2019-03-24T04:37:06.312Z,6.37
2019-03-24T04:39:35.591Z,6.37
2019-03-24T04:42:04.416Z,6.30
2019-03-24T04:44:34.093Z,6.20
2019-03-24T04:47:02.903Z,6.30
2019-03-24T04:49:33.397Z,6.37
2019-03-24T04:52:02.546Z,6.37
2019-03-24T04:54:31.776Z,6.41
2019-03-24T04:57:00.928Z,6.43
2019-03-24T04:59:30.730Z,6.29
2019-03-24T05:01:59.531Z,6.17
2019-03-24T05:04:28.423Z,6.16
2019-03-24T05:06:57.428Z,5.99
2019-03-24T05:09:26.801Z,5.79
2019-03-24T05:11:55.620Z,5.73
2019-03-24T05:14:24.425Z,5.78
2019-03-24T05:16:53.628Z,5.77
2019-03-24T05:19:22.521Z,5.65
2019-03-24T05:21:51.465Z,5.59
2019-03-24T05:24:20.256Z,5.51
2019-03-24T05:26:49.075Z,5.53
2019-03-24T05:29:17.844Z,5.57
2019-03-24T05:31:46.638Z,5.60
2019-03-24T05:34:15.924Z,5.69
2019-03-24T05:36:44.801Z,5.75
2019-03-24T05:39:13.614Z,5.89
2019-03-24T05:41:44.158Z,5.83
2019-03-24T05:44:13.389Z,5.71
2019-03-24T05:46:42.150Z,5.74
2019-03-24T05:49:10.966Z,5.90
2019-03-24T05:51:39.869Z,5.75
2019-03-24T05:54:08.795Z,5.65
2019-03-24T05:56:37.743Z,5.65
2019-03-24T05:59:06.463Z,5.59
2019-03-24T06:01:35.310Z,5.68
2019-03-24T06:04:04.252Z,5.67
2019-03-24T06:06:33.093Z,5.71
2019-03-24T06:09:02.156Z,5.75
2019-03-24T06:11:33.214Z,5.84
2019-03-24T06:14:02.017Z,5.93
2019-03-24T06:16:30.838Z,6.07
2019-03-24T06:18:59.710Z,6.12
2019-03-24T06:21:28.651Z,6.22
2019-03-24T06:23:57.451Z,6.50
2019-03-24T06:26:26.362Z,6.54
2019-03-24T06:28:55.305Z,6.53
2019-03-24T06:31:24.138Z,6.57
2019-03-24T06:33:52.983Z,6.71
2019-03-24T06:36:21.900Z,6.76
2019-03-24T06:38:50.936Z,6.89
2019-03-24T06:41:20.641Z,6.99
2019-03-24T06:43:49.461Z,7.03
2019-03-24T06:46:18.246Z,6.92
2019-03-24T06:48:47.128Z,6.86
2019-03-24T06:51:16.131Z,6.67
2019-03-24T06:53:44.910Z,6.67
2019-03-24T06:56:13.746Z,7.22
2019-03-24T06:58:42.565Z,7.43
2019-03-24T07:01:11.931Z,7.48
2019-03-24T07:03:41.032Z,7.61
2019-03-24T07:06:09.812Z,7.52
2019-03-24T07:08:39.050Z,7.72
2019-03-24T07:11:13.353Z,8.21
2019-03-24T07:13:39.258Z,8.29
2019-03-24T07:16:08.196Z,7.94
2019-03-24T07:18:36.972Z,8.09
2019-03-24T07:21:05.886Z,8.36
2019-03-24T07:23:34.810Z,8.25
2019-03-24T07:26:03.770Z,8.10
2019-03-24T07:28:32.644Z,8.34
2019-03-24T07:31:01.985Z,8.36
2019-03-24T07:33:30.866Z,8.39
2019-03-24T07:35:59.695Z,8.48
2019-03-24T07:38:28.865Z,8.69
2019-03-24T07:40:58.441Z,8.50
2019-03-24T07:43:27.670Z,8.81
2019-03-24T07:45:56.488Z,8.44
2019-03-24T07:48:25.274Z,8.44
2019-03-24T07:50:54.094Z,8.63
2019-03-24T07:53:22.857Z,8.96
2019-03-24T07:55:51.671Z,9.49
2019-03-24T07:58:20.768Z,9.70
2019-03-24T08:00:49.698Z,9.81
2019-03-24T08:03:19.107Z,9.48
2019-03-24T08:05:48.016Z,9.78
2019-03-24T08:08:17.497Z,10.09
2019-03-24T08:10:46.619Z,9.94
2019-03-24T08:13:15.552Z,10.19
2019-03-24T08:15:44.328Z,10.48
2019-03-24T08:18:13.186Z,10.56
2019-03-24T08:20:43.273Z,10.63
2019-03-24T08:23:12.376Z,10.78
2019-03-24T08:25:41.200Z,10.50
2019-03-24T08:28:10.418Z,9.96
2019-03-24T08:30:39.458Z,10.08
2019-03-24T08:33:08.302Z,10.70
2019-03-24T08:35:37.233Z,11.02
2019-03-24T08:38:06.151Z,10.87
2019-03-24T08:40:34.895Z,11.07
2019-03-24T08:43:04.051Z,11.14
2019-03-24T08:45:32.831Z,11.10
2019-03-24T08:48:01.665Z,11.15
2019-03-24T08:50:30.423Z,11.26
2019-03-24T08:53:02.063Z,11.55
2019-03-24T08:55:32.081Z,11.63
2019-03-24T08:58:00.894Z,11.87
2019-03-24T09:00:30.772Z,12.09
2019-03-24T09:03:00.080Z,12.11
2019-03-24T09:05:30.750Z,12.34
2019-03-24T09:07:59.598Z,12.48
2019-03-24T09:10:29.861Z,12.46
2019-03-24T09:12:58.841Z,12.14
2019-03-24T09:15:27.714Z,11.91
2019-03-24T09:17:56.667Z,12.08
2019-03-24T09:20:25.455Z,12.37
2019-03-24T09:22:54.261Z,12.54
2019-03-24T09:25:23.192Z,12.99
2019-03-24T09:27:52.166Z,13.19
2019-03-24T09:30:33.234Z,13.47
2019-03-24T09:33:02.417Z,13.51
2019-03-24T09:35:31.274Z,13.24
2019-03-24T09:38:00.494Z,13.37
2019-03-24T09:40:30.986Z,13.48
2019-03-24T09:43:00.246Z,14.01
2019-03-24T09:45:30.602Z,14.07
2019-03-24T09:47:59.964Z,13.91
2019-03-24T09:50:28.834Z,14.21
2019-03-24T09:52:57.749Z,14.62
2019-03-24T09:55:26.541Z,14.37
2019-03-24T09:57:55.927Z,14.58
2019-03-24T10:00:24.665Z,14.50
2019-03-24T10:02:54.108Z,14.34
2019-03-24T10:05:23.628Z,14.75
2019-03-24T10:07:52.720Z,14.97
2019-03-24T10:10:21.598Z,15.33
2019-03-24T10:12:51.734Z,15.52
2019-03-24T10:15:22.368Z,15.23
2019-03-24T10:17:51.199Z,15.19
2019-03-24T10:20:20.055Z,15.44
2019-03-24T10:22:48.929Z,15.23
2019-03-24T10:25:17.944Z,15.53
2019-03-24T10:27:47.811Z,15.58
2019-03-24T10:30:16.666Z,15.52
2019-03-24T10:32:45.446Z,15.34
2019-03-24T10:35:14.616Z,15.81
2019-03-24T10:37:43.748Z,15.82
2019-03-24T10:40:12.966Z,15.69
2019-03-24T10:42:41.762Z,15.96
2019-03-24T10:45:10.772Z,15.98
2019-03-24T10:47:39.755Z,15.86
2019-03-24T10:50:09.447Z,15.87
2019-03-24T10:52:38.408Z,16.18
2019-03-24T10:55:08.768Z,16.66
2019-03-24T10:57:37.943Z,16.41
2019-03-24T11:00:08.780Z,16.46
2019-03-24T11:02:37.938Z,16.14
2019-03-24T11:05:07.032Z,16.24
2019-03-24T11:07:35.892Z,16.58
2019-03-24T11:10:06.015Z,16.77
2019-03-24T11:12:34.852Z,17.02
2019-03-24T11:15:04.623Z,17.01
2019-03-24T11:17:33.855Z,16.63
2019-03-24T11:20:03.047Z,16.59
2019-03-24T11:22:32.175Z,16.69
2019-03-24T11:25:02.197Z,16.77
2019-03-24T11:27:31.578Z,16.64
2019-03-24T11:30:00.537Z,16.49
2019-03-24T11:32:29.394Z,16.59
2019-03-24T11:34:58.210Z,16.58
2019-03-24T11:37:27.317Z,17.04
2019-03-24T11:39:56.161Z,16.87
2019-03-24T11:42:25.331Z,16.92
2019-03-24T11:44:54.218Z,17.01
2019-03-24T11:47:26.781Z,17.28
2019-03-24T11:49:54.613Z,17.12
2019-03-24T11:52:23.441Z,16.72
2019-03-24T11:54:52.581Z,16.94
2019-03-24T11:57:21.477Z,17.04
2019-03-24T11:59:50.365Z,17.27
2019-03-24T12:02:19.310Z,16.84
2019-03-24T12:04:48.133Z,16.99
2019-03-24T12:07:16.923Z,17.36
2019-03-24T12:09:46.277Z,17.81
2019-03-24T12:12:15.525Z,17.84
2019-03-24T12:14:44.382Z,17.90
2019-03-24T12:17:13.247Z,18.27
2019-03-24T12:19:42.410Z,18.25
2019-03-24T12:22:20.219Z,18.44
2019-03-24T12:24:50.350Z,18.74
2019-03-24T12:27:19.199Z,18.09
2019-03-24T12:29:48.085Z,17.65
2019-03-24T12:32:17.595Z,18.08
2019-03-24T12:34:46.481Z,18.54
2019-03-24T12:37:15.293Z,18.63
2019-03-24T12:39:44.410Z,18.15
2019-03-24T12:42:13.301Z,18.00
2019-03-24T12:44:42.233Z,18.14
2019-03-24T12:47:11.059Z,18.04
2019-03-24T12:49:39.870Z,18.27
2019-03-24T12:52:12.877Z,18.68
2019-03-24T12:54:41.168Z,18.90
2019-03-24T12:57:10.232Z,19.13
2019-03-24T12:59:39.051Z,19.71
2019-03-24T13:02:07.828Z,19.36
2019-03-24T13:04:37.823Z,18.91
2019-03-24T13:07:06.607Z,19.02
2019-03-24T13:09:35.517Z,19.39
2019-03-24T13:12:04.304Z,18.79
2019-03-24T13:14:33.122Z,18.78
2019-03-24T13:17:01.998Z,19.26
2019-03-24T13:19:30.814Z,18.98
2019-03-24T13:22:00.850Z,18.84
2019-03-24T13:24:29.739Z,19.29
2019-03-24T13:26:58.603Z,20.35
2019-03-24T13:29:27.549Z,20.62
2019-03-24T13:31:56.362Z,20.84
2019-03-24T13:34:25.474Z,21.05
2019-03-24T13:36:54.639Z,21.88
2019-03-24T13:39:23.551Z,21.23
2019-03-24T13:41:52.379Z,22.62
2019-03-24T13:44:21.246Z,23.21
2019-03-24T13:46:50.066Z,23.39
2019-03-24T13:49:19.547Z,22.80
2019-03-24T13:51:48.319Z,23.92
2019-03-24T13:54:17.440Z,24.23
2019-03-24T13:56:46.520Z,25.16
2019-03-24T13:59:15.302Z,24.38
2019-03-24T14:01:44.321Z,22.84
2019-03-24T14:04:13.110Z,22.99
2019-03-24T14:06:41.950Z,23.10
2019-03-24T14:09:11.299Z,22.81
2019-03-24T14:11:40.211Z,22.87
2019-03-24T14:14:09.035Z,22.20
2019-03-24T14:16:37.883Z,23.13
2019-03-24T14:19:06.785Z,23.87
2019-03-24T14:21:35.651Z,24.79
2019-03-24T14:24:04.425Z,23.96
2019-03-24T14:26:33.475Z,24.69
2019-03-24T14:29:02.261Z,23.35
2019-03-24T14:31:32.831Z,22.99
2019-03-24T14:34:01.948Z,21.80
2019-03-24T14:36:31.085Z,22.69
2019-03-24T14:38:59.904Z,22.98
2019-03-24T14:41:28.765Z,22.15
2019-03-24T14:43:57.569Z,22.11
2019-03-24T14:46:26.736Z,22.24
2019-03-24T14:48:55.627Z,20.71
2019-03-24T14:51:26.360Z,19.77
2019-03-24T14:53:55.173Z,19.69
2019-03-24T14:56:24.343Z,21.00
2019-03-24T14:58:53.700Z,21.75
2019-03-24T15:01:22.854Z,21.71
2019-03-24T15:03:51.713Z,22.36
2019-03-24T15:06:20.754Z,22.04
2019-03-24T15:08:49.666Z,22.95
2019-03-24T15:11:19.694Z,21.99
2019-03-24T15:13:48.475Z,21.76
2019-03-24T15:16:17.325Z,21.74
2019-03-24T15:18:47.461Z,21.14
2019-03-24T15:21:16.322Z,21.60
2019-03-24T15:23:45.096Z,20.92
2019-03-24T15:26:13.941Z,20.59
2019-03-24T15:28:42.749Z,21.26
2019-03-24T15:31:11.725Z,21.77
2019-03-24T15:33:40.971Z,21.44
2019-03-24T15:36:13.214Z,21.83
2019-03-24T15:38:42.760Z,21.90
2019-03-24T15:41:11.820Z,22.44
2019-03-24T15:43:41.207Z,21.97
2019-03-24T15:46:10.285Z,21.06
2019-03-24T15:48:39.131Z,20.53
2019-03-24T15:51:16.325Z,19.31
2019-03-24T15:53:38.793Z,18.60
2019-03-24T15:56:07.661Z,19.29
2019-03-24T15:58:36.492Z,20.47
2019-03-24T16:01:05.484Z,21.32
2019-03-24T16:03:34.507Z,21.78
2019-03-24T16:06:03.639Z,21.69
2019-03-24T16:08:32.966Z,21.88
2019-03-24T16:11:02.371Z,21.46
2019-03-24T16:13:31.390Z,21.19
2019-03-24T16:16:00.504Z,20.87
2019-03-24T16:18:30.928Z,20.39
2019-03-24T16:20:59.919Z,20.97
2019-03-24T16:23:28.758Z,20.02
2019-03-24T16:25:57.656Z,19.12
2019-03-24T16:28:26.597Z,19.28
2019-03-24T16:30:56.013Z,18.88
2019-03-24T16:33:25.916Z,18.94
2019-03-24T16:35:54.859Z,18.63
2019-03-24T16:38:23.750Z,18.74
2019-03-24T16:40:53.119Z,18.45
2019-03-24T16:43:22.321Z,17.54
2019-03-24T16:45:51.519Z,17.35
2019-03-24T16:48:20.273Z,17.18
2019-03-24T16:50:49.085Z,17.04
2019-03-24T16:53:17.998Z,16.93
2019-03-24T16:55:46.797Z,16.44
2019-03-24T16:58:15.976Z,15.95
2019-03-24T17:00:44.787Z,15.68
2019-03-24T17:03:15.499Z,15.59
2019-03-24T17:05:44.339Z,15.23
2019-03-24T17:08:13.141Z,15.10
2019-03-24T17:10:44.857Z,14.82
2019-03-24T17:13:13.949Z,14.75
2019-03-24T17:15:44.068Z,14.53
2019-03-24T17:18:13.211Z,14.31
2019-03-24T17:20:42.237Z,14.13
2019-03-24T17:23:12.332Z,13.80
2019-03-24T17:25:41.264Z,13.72
2019-03-24T17:28:10.130Z,13.59
2019-03-24T17:30:39.939Z,13.54
2019-03-24T17:33:08.789Z,13.46
2019-03-24T17:35:41.739Z,13.13
2019-03-24T17:38:13.642Z,13.24
2019-03-24T17:40:44.543Z,13.09
2019-03-24T17:43:13.514Z,13.05
2019-03-24T17:45:42.589Z,12.85
2019-03-24T17:48:11.982Z,12.87
2019-03-24T17:50:40.811Z,12.91
2019-03-24T17:53:10.204Z,12.82
2019-03-24T17:55:39.210Z,12.73
2019-03-24T17:58:07.999Z,12.75
2019-03-24T18:00:43.222Z,12.69
2019-03-24T18:03:12.524Z,12.71
2019-03-24T18:05:41.779Z,12.40
2019-03-24T18:08:10.592Z,12.47
2019-03-24T18:10:39.739Z,12.34
2019-03-24T18:13:08.684Z,12.39
2019-03-24T18:15:37.652Z,12.46
2019-03-24T18:18:06.873Z,12.55
2019-03-24T18:20:36.441Z,12.59
2019-03-24T18:23:05.681Z,12.57
2019-03-24T18:25:39.185Z,12.62
2019-03-24T18:28:08.465Z,12.52
2019-03-24T18:30:37.766Z,12.45
2019-03-24T18:33:07.058Z,12.31
2019-03-24T18:35:36.266Z,12.33
2019-03-24T18:38:05.096Z,12.27
2019-03-24T18:40:33.981Z,12.41
2019-03-24T18:43:02.768Z,12.55
2019-03-24T18:45:33.061Z,12.50
2019-03-24T18:48:01.879Z,12.59
2019-03-24T18:50:31.222Z,12.54
2019-03-24T18:53:00.512Z,12.60
2019-03-24T18:55:29.658Z,12.60
2019-03-24T18:57:58.541Z,12.63
2019-03-24T19:00:27.982Z,12.57
2019-03-24T19:02:56.787Z,12.58
2019-03-24T19:05:26.045Z,12.50
2019-03-24T19:07:54.866Z,12.52
2019-03-24T19:10:24.157Z,12.52
2019-03-24T19:12:53.410Z,12.42
2019-03-24T19:15:22.584Z,12.44
2019-03-24T19:17:51.594Z,12.38
2019-03-24T19:20:20.474Z,12.40
2019-03-24T19:22:49.287Z,12.44
2019-03-24T19:25:18.341Z,12.39
2019-03-24T19:27:47.210Z,12.28
2019-03-24T19:30:16.341Z,12.17
2019-03-24T19:32:45.574Z,12.10
2019-03-24T19:35:14.490Z,11.77
2019-03-24T19:37:44.892Z,11.70
2019-03-24T19:40:26.095Z,11.75
2019-03-24T19:42:55.215Z,11.56
2019-03-24T19:45:24.239Z,11.76
2019-03-24T19:47:53.203Z,11.76
2019-03-24T19:50:22.142Z,11.71
2019-03-24T19:52:51.140Z,11.59
2019-03-24T19:55:20.172Z,11.50
2019-03-24T19:57:49.135Z,11.59
2019-03-24T20:00:18.024Z,11.48
2019-03-24T20:02:47.047Z,11.61
2019-03-24T20:05:15.971Z,11.66
2019-03-24T20:07:48.254Z,11.68
2019-03-24T20:10:17.320Z,11.68
2019-03-24T20:12:46.950Z,11.70
2019-03-24T20:15:16.924Z,11.66
2019-03-24T20:17:45.683Z,11.62
2019-03-24T20:20:14.629Z,11.65
2019-03-24T20:22:43.456Z,11.68
2019-03-24T20:25:12.358Z,11.68
2019-03-24T20:27:41.839Z,11.65
2019-03-24T20:30:11.381Z,11.55
2019-03-24T20:32:40.450Z,11.61
2019-03-24T20:35:11.309Z,11.60
2019-03-24T20:37:40.472Z,11.62
2019-03-24T20:40:09.871Z,11.53
2019-03-24T20:42:38.771Z,11.62
2019-03-24T20:45:07.914Z,11.57
2019-03-24T20:47:36.883Z,11.46
2019-03-24T20:50:06.701Z,11.57
2019-03-24T20:52:35.698Z,11.59
2019-03-24T20:55:05.261Z,11.64
2019-03-24T20:57:34.374Z,11.51
2019-03-24T21:00:05.615Z,11.56
2019-03-24T21:02:36.317Z,11.37
2019-03-24T21:05:05.960Z,11.41
2019-03-24T21:07:35.736Z,11.36
2019-03-24T21:10:05.626Z,11.26
2019-03-24T21:12:34.546Z,11.25
2019-03-24T21:15:03.901Z,11.32
2019-03-24T21:17:34.106Z,11.35
2019-03-24T21:20:03.171Z,11.41
2019-03-24T21:22:31.992Z,11.47
2019-03-24T21:25:00.827Z,11.30
2019-03-24T21:27:30.201Z,11.33
2019-03-24T21:30:01.705Z,11.27
2019-03-24T21:32:31.935Z,11.35
2019-03-24T21:35:00.748Z,11.36
2019-03-24T21:37:29.680Z,11.21
2019-03-24T21:39:58.697Z,11.21
2019-03-24T21:42:27.463Z,11.25
2019-03-24T21:44:56.417Z,11.23
2019-03-24T21:47:24.873Z,11.24
2019-03-24T21:49:53.786Z,11.07
2019-03-24T21:52:22.981Z,11.14
2019-03-24T21:54:51.880Z,11.13
2019-03-24T21:57:34.289Z,11.03
2019-03-24T22:00:07.571Z,11.10
2019-03-24T22:02:37.057Z,11.17
2019-03-24T22:05:06.004Z,11.10
2019-03-24T22:07:34.998Z,10.97
2019-03-24T22:10:04.723Z,10.88
2019-03-24T22:12:33.986Z,10.80
2019-03-24T22:15:07.024Z,10.84
2019-03-24T22:17:35.991Z,10.86
2019-03-24T22:20:05.258Z,10.79
2019-03-24T22:22:34.548Z,10.75
2019-03-24T22:25:03.549Z,10.63
2019-03-24T22:27:32.657Z,10.66
2019-03-24T22:30:01.602Z,10.57
2019-03-24T22:32:31.646Z,10.53
2019-03-24T22:35:00.450Z,10.52
2019-03-24T22:37:29.640Z,10.53
2019-03-24T22:39:58.450Z,10.53
2019-03-24T22:42:27.831Z,10.38
2019-03-24T22:44:56.626Z,10.37
2019-03-24T22:47:25.436Z,10.39
2019-03-24T22:49:55.347Z,10.27
2019-03-24T22:52:24.326Z,10.22
2019-03-24T22:54:53.508Z,10.14
2019-03-24T22:57:22.415Z,10.13
2019-03-24T22:59:51.363Z,10.01
2019-03-24T23:02:20.185Z,10.09
2019-03-24T23:04:48.985Z,9.99
2019-03-24T23:07:17.847Z,9.95
2019-03-24T23:09:47.450Z,9.92
2019-03-24T23:12:16.274Z,9.88
2019-03-24T23:14:45.877Z,9.81
2019-03-24T23:17:14.958Z,9.89
2019-03-24T23:19:43.763Z,9.91
2019-03-24T23:22:12.636Z,9.89
2019-03-24T23:24:43.482Z,9.86
2019-03-24T23:27:12.314Z,9.76
2019-03-24T23:29:41.112Z,9.82
2019-03-24T23:32:10.280Z,9.76
2019-03-24T23:34:39.603Z,9.79
2019-03-24T23:37:08.857Z,9.84
2019-03-24T23:39:37.975Z,9.76
2019-03-24T23:42:06.940Z,9.71
2019-03-24T23:44:36.876Z,9.77
2019-03-24T23:47:05.801Z,9.75
2019-03-24T23:49:34.722Z,9.73
2019-03-24T23:52:03.900Z,9.70
2019-03-24T23:54:32.781Z,9.56
2019-03-24T23:57:01.691Z,9.62
2019-03-24T23:59:30.541Z,9.60
